Time;durP1;ratioP1;P1;durP2;ratioP2;P2;SDS_P1;SDS_P2;PMS_P1;PMS_P2;Temp;Humidity;BMP_temperature;BMP_pressure;BME280_temperature;BME280_humidity;BME280_pressure;Samples;Min_cycle;Max_cycle;Signal;HPM_P1;HPM_P2
2022/08/29 00:02:33;;;;;;;6.13;5.50;;;;;;;28.55;76.58;98051.44;4889652;29;20127;-65
2022/08/29 00:05:25;;;;;;;9.07;5.60;;;;;;;28.72;75.72;98047.59;4888371;29;20068;-64
2022/08/29 00:08:08;;;;;;;7.28;5.57;;;;;;;28.68;75.78;98055.78;4891966;29;20045;-65
2022/08/29 00:11:05;;;;;;;8.60;5.68;;;;;;;28.68;75.99;98047.50;4878833;29;20073;-66
2022/08/29 00:13:41;;;;;;;8.38;6.18;;;;;;;28.74;75.67;98036.19;4877606;29;20056;-66
2022/08/29 00:16:36;;;;;;;11.05;6.25;;;;;;;28.56;75.36;98030.97;4894674;28;20072;-64
2022/08/29 00:19:11;;;;;;;8.80;6.55;;;;;;;28.50;75.46;98026.81;4892515;29;20053;-65
2022/08/29 00:22:00;;;;;;;10.60;7.20;;;;;;;28.65;74.96;98030.81;4886786;29;20481;-65
2022/08/29 00:24:42;;;;;;;9.10;7.00;;;;;;;28.58;75.51;98034.16;4874048;29;20056;-65
2022/08/29 00:27:32;;;;;;;8.80;6.93;;;;;;;28.79;74.85;98033.19;4889221;29;20125;-65
2022/08/29 00:30:16;;;;;;;10.98;7.03;;;;;;;28.73;74.84;98029.06;4887738;29;20485;-65
2022/08/29 00:33:05;;;;;;;10.98;6.78;;;;;;;28.95;74.57;98036.81;4877778;29;20060;-65
2022/08/29 00:35:50;;;;;;;9.90;6.90;;;;;;;28.95;74.88;98045.09;4893100;29;20139;-65
2022/08/29 00:38:39;;;;;;;12.43;6.88;;;;;;;29.04;74.88;98044.91;4892588;29;20151;-66
2022/08/29 00:41:28;;;;;;;16.95;6.53;;;;;;;29.13;74.35;98047.56;4876116;29;20070;-64
2022/08/29 00:44:10;;;;;;;13.07;7.10;;;;;;;29.15;74.28;98057.09;4877471;29;20053;-64
2022/08/29 00:47:02;;;;;;;11.32;6.78;;;;;;;29.20;73.92;98059.63;4892739;29;20125;-64
2022/08/29 00:49:47;;;;;;;9.48;6.53;;;;;;;29.26;73.78;98058.19;4894139;29;20640;-65
2022/08/29 00:52:45;;;;;;;12.40;6.63;;;;;;;29.29;74.21;98056.66;4893309;29;20084;-65
2022/08/29 00:55:30;;;;;;;11.25;6.68;;;;;;;29.25;74.35;98053.84;4892706;29;20116;-64
2022/08/29 00:58:30;;;;;;;11.88;6.50;;;;;;;29.31;74.43;98070.16;4892255;29;20060;-65
2022/08/29 01:01:12;;;;;;;11.65;7.38;;;;;;;29.38;74.73;98065.59;4892132;29;20056;-65
2022/08/29 01:04:01;;;;;;;10.68;7.28;;;;;;;29.41;74.22;98075.97;4873877;29;20049;-66
2022/08/29 01:06:45;;;;;;;10.82;7.13;;;;;;;29.52;74.37;98072.66;4873805;29;20048;-67
2022/08/29 01:09:35;;;;;;;11.40;7.10;;;;;;;29.49;74.12;98093.53;4878408;29;20144;-66
2022/08/29 01:12:25;;;;;;;11.32;7.20;;;;;;;29.56;73.81;98092.91;4875323;29;20111;-66
2022/08/29 01:15:20;;;;;;;9.98;7.07;;;;;;;29.55;73.27;98097.66;4900013;28;20060;-66
2022/08/29 01:18:11;;;;;;;10.15;7.05;;;;;;;29.65;73.37;98104.59;4910595;29;20048;-66
2022/08/29 01:21:30;;;;;;;9.23;7.32;;;;;;;29.68;72.76;98101.94;4910710;29;20151;-65
2022/08/29 01:24:15;;;;;;;8.55;6.97;;;;;;;29.73;72.61;98098.16;4872699;29;20049;-65
2022/08/29 01:27:04;;;;;;;8.60;6.80;;;;;;;29.69;73.15;98099.97;4873686;29;20498;-67
2022/08/29 01:29:47;;;;;;;10.68;7.32;;;;;;;29.61;72.89;98107.28;4880094;29;20056;-66
2022/08/29 01:32:36;;;;;;;9.15;6.50;;;;;;;29.70;72.29;98115.41;4890715;29;20071;-67
2022/08/29 01:35:18;;;;;;;10.50;6.40;;;;;;;29.81;72.15;98132.31;4890790;29;20136;-66
2022/08/29 01:38:07;;;;;;;9.85;6.32;;;;;;;29.78;72.71;98128.28;4872977;29;20044;-67
2022/08/29 01:40:49;;;;;;;9.82;7.45;;;;;;;29.98;71.90;98136.69;4889824;29;20053;-65
2022/08/29 01:43:48;;;;;;;9.15;6.43;;;;;;;30.01;72.65;98142.31;4895911;29;20414;-66
2022/08/29 01:46:33;;;;;;;9.85;6.47;;;;;;;29.98;72.48;98140.28;4890144;29;20041;-67
2022/08/29 01:49:24;;;;;;;8.93;7.18;;;;;;;29.93;72.53;98139.72;4888068;29;20076;-68
2022/08/29 01:52:19;;;;;;;11.30;7.68;;;;;;;29.93;72.83;98157.13;4889984;29;20713;-67
2022/08/29 01:54:54;;;;;;;12.52;7.45;;;;;;;29.93;72.51;98157.13;4891237;29;20063;-67
2022/08/29 01:57:43;;;;;;;10.52;7.35;;;;;;;29.60;72.63;98165.72;4888550;29;20116;-67
2022/08/29 02:00:32;;;;;;;9.15;7.13;;;;;;;29.80;72.34;98166.66;4889742;29;20165;-66
2022/08/29 02:03:27;;;;;;;11.18;6.32;;;;;;;29.77;71.67;98176.50;4889829;29;20147;-67
2022/08/29 02:06:03;;;;;;;12.40;6.15;;;;;;;29.83;71.97;98180.59;4890631;29;20072;-67
2022/08/29 02:08:59;;;;;;;;;;;;;;;29.84;71.77;98173.88;4891227;29;20151;-67
2022/08/29 02:11:35;;;;;;;8.43;5.47;;;;;;;29.72;71.40;98176.69;4891023;29;20025;-66
2022/08/29 02:14:31;;;;;;;7.90;5.22;;;;;;;29.68;70.69;98184.91;4876460;29;20056;-66
2022/08/29 02:17:13;;;;;;;9.02;4.80;;;;;;;29.82;70.36;98183.72;4891271;29;20044;-66
2022/08/29 02:20:04;;;;;;;7.28;5.22;;;;;;;29.97;69.88;98193.19;4891256;29;20060;-66
2022/08/29 02:22:47;;;;;;;8.60;5.05;;;;;;;30.02;70.48;98195.69;4875637;29;20574;-67
2022/08/29 02:25:43;;;;;;;10.63;5.82;;;;;;;30.14;70.18;98200.34;4898397;29;20150;-66
2022/08/29 02:28:25;;;;;;;13.48;5.75;;;;;;;29.98;69.89;98203.06;4894578;29;20064;-66
2022/08/29 02:31:15;;;;;;;6.80;5.18;;;;;;;30.07;69.80;98212.03;4890314;29;20087;-66
2022/08/29 02:33:57;;;;;;;;;;;;;;;30.21;69.49;98215.16;4875048;29;20052;-66
2022/08/29 02:36:45;;;;;;;9.50;5.57;;;;;;;30.10;70.21;98214.09;4890520;29;19934;-66
2022/08/29 02:39:36;;;;;;;11.18;5.63;;;;;;;30.32;69.96;98217.41;4890405;29;20048;-67
2022/08/29 02:42:25;;;;;;;12.40;5.93;;;;;;;30.39;70.22;98220.38;4892251;29;20064;-65
2022/08/29 02:45:20;;;;;;;8.98;5.97;;;;;;;30.62;69.76;98232.41;4897901;29;20047;-66
2022/08/29 02:47:57;;;;;;;10.07;6.57;;;;;;;30.42;70.16;98245.38;4891827;29;20056;-65
2022/08/29 02:51:00;;;;;;;13.18;7.22;;;;;;;30.36;69.69;98246.81;4888054;29;20056;-66
2022/08/29 02:53:35;;;;;;;9.93;6.15;;;;;;;30.42;70.12;98255.63;4888702;29;20139;-67
2022/08/29 02:56:31;;;;;;;11.90;6.93;;;;;;;30.34;71.38;98262.16;4889233;29;20092;-68
2022/08/29 02:59:07;;;;;;;11.70;7.93;;;;;;;30.24;71.93;98278.09;4888817;29;20052;-66
2022/08/29 03:01:56;;;;;;;12.55;7.38;;;;;;;30.21;71.06;98273.28;4889949;29;20108;-66
2022/08/29 03:04:38;;;;;;;13.70;7.72;;;;;;;29.76;71.27;98273.63;4889527;29;20111;-66
2022/08/29 03:07:28;;;;;;;12.70;7.53;;;;;;;29.91;71.12;98288.69;4889720;29;20163;-66
2022/08/29 03:10:18;;;;;;;13.98;7.28;;;;;;;29.51;71.73;98295.81;4889874;29;20540;-65
2022/08/29 03:13:08;;;;;;;9.70;6.20;;;;;;;29.60;71.60;98309.50;4873935;29;20049;-66
2022/08/29 03:15:56;;;;;;;14.90;6.85;;;;;;;29.25;72.81;98310.03;4892112;28;20536;-65
2022/08/29 03:18:51;;;;;;;15.73;6.72;;;;;;;29.30;72.88;98320.84;4890349;29;20040;-66
2022/08/29 03:21:40;;;;;;;10.00;6.72;;;;;;;28.52;74.93;98322.66;4893032;29;20053;-67
2022/08/29 03:24:29;;;;;;;12.07;6.80;;;;;;;29.22;72.86;98338.38;4875335;29;20128;-65
2022/08/29 03:27:11;;;;;;;14.80;7.10;;;;;;;29.60;71.50;98343.50;4886347;29;20052;-68
2022/08/29 03:30:00;;;;;;;12.43;7.50;;;;;;;29.65;72.06;98346.00;4888880;29;20048;-66
2022/08/29 03:32:42;;;;;;;14.40;8.13;;;;;;;29.60;72.54;98362.84;4890022;29;20045;-65
2022/08/29 03:35:32;;;;;;;13.50;6.95;;;;;;;29.80;72.03;98372.16;4884355;29;20052;-66
2022/08/29 03:38:14;;;;;;;13.77;7.97;;;;;;;29.70;72.22;98385.66;4889648;29;20388;-65
2022/08/29 03:41:03;;;;;;;15.48;6.60;;;;;;;29.47;73.73;98388.91;4890009;29;20052;-66
2022/08/29 03:43:54;;;;;;;12.85;6.05;;;;;;;28.68;76.94;98386.28;4891334;29;20059;-66
2022/08/29 03:46:43;;;;;;;13.20;6.32;;;;;;;28.66;77.77;98367.34;4900921;29;20056;-66
2022/08/29 03:49:26;;;;;;;12.32;6.78;;;;;;;27.98;79.92;98370.41;4899766;29;20436;-65
2022/08/29 03:52:15;;;;;;;12.93;7.15;;;;;;;27.80;80.60;98350.44;4901368;29;20052;-65
2022/08/29 03:55:06;;;;;;;16.35;7.65;;;;;;;27.84;80.55;98348.59;4899008;29;20119;-66
2022/08/29 03:57:48;;;;;;;10.80;6.93;;;;;;;27.95;79.33;98346.25;4899560;29;20052;-66
2022/08/29 04:00:37;;;;;;;11.75;7.05;;;;;;;28.28;77.00;98328.91;4886182;29;20068;-66
2022/08/29 04:03:19;;;;;;;6.20;4.47;;;;;;;28.49;75.62;98320.56;4900205;29;20468;-66
2022/08/29 04:06:11;;;;;;;6.47;3.85;;;;;;;28.80;73.93;98327.53;4901373;29;20116;-66
2022/08/29 04:09:01;;;;;;;4.10;3.67;;;;;;;28.50;73.81;98341.50;4902091;29;20489;-66
2022/08/29 04:11:56;;;;;;;7.72;4.07;;;;;;;29.25;71.22;98341.25;4890292;29;20071;-66
2022/08/29 04:14:31;;;;;;;7.07;3.90;;;;;;;28.24;73.48;98353.63;4879915;29;20049;-66
2022/08/29 04:17:26;;;;;;;5.43;3.75;;;;;;;28.95;71.59;98360.00;4896733;28;20514;-66
2022/08/29 04:20:22;;;;;;;4.15;3.15;;;;;;;29.09;69.40;98359.66;4896279;28;20056;-66
2022/08/29 04:23:13;;;;;;;3.35;3.03;;;;;;;29.83;68.02;98362.34;4892726;29;20076;-66
2022/08/29 04:25:55;;;;;;;7.43;3.60;;;;;;;29.90;67.98;98364.50;4912286;29;20670;-65
2022/08/29 04:29:06;;;;;;;5.30;3.38;;;;;;;30.34;66.79;98367.34;4912143;29;20586;-66
2022/08/29 04:31:49;;;;;;;7.32;4.00;;;;;;;31.36;64.54;98359.25;4896549;29;20130;-66
2022/08/29 04:34:38;;;;;;;6.68;3.72;;;;;;;31.10;64.52;98359.81;4912118;29;20060;-67
2022/08/29 04:37:27;;;;;;;5.55;3.97;;;;;;;31.98;63.38;98367.75;4911543;29;20139;-66
2022/08/29 04:40:14;;;;;;;8.13;4.50;;;;;;;31.40;64.72;98364.88;4911576;29;20138;-66
2022/08/29 04:43:03;;;;;;;7.97;4.32;;;;;;;31.69;63.82;98354.44;4911810;29;20484;-67
2022/08/29 04:45:56;;;;;;;12.55;4.93;;;;;;;32.28;63.18;98358.06;4911069;29;20051;-66
2022/08/29 04:48:38;;;;;;;9.70;5.28;;;;;;;32.09;62.08;98356.09;4910347;29;20052;-66
2022/08/29 04:51:33;;;;;;;8.40;4.68;;;;;;;31.89;61.85;98358.84;4908422;29;20056;-65
2022/08/29 04:54:09;;;;;;;7.63;4.72;;;;;;;32.44;61.73;98361.50;4911193;29;20088;-67
2022/08/29 04:57:06;;;;;;;;;;;;;;;32.43;60.88;98359.94;4907357;29;20556;-67
2022/08/29 04:59:44;;;;;;;9.13;5.20;;;;;;;31.79;61.73;98362.19;4892550;29;19927;-68
2022/08/29 05:02:33;;;;;;;8.77;6.03;;;;;;;32.12;61.17;98367.28;4875391;29;20477;-69
2022/08/29 05:05:18;;;;;;;8.45;6.70;;;;;;;32.68;60.58;98365.16;4892427;29;20056;-67
2022/08/29 05:08:07;;;;;;;15.18;8.88;;;;;;;32.80;60.12;98366.94;4892767;29;20131;-67
2022/08/29 05:10:52;;;;;;;14.63;10.60;;;;;;;33.22;59.14;98366.84;4892583;29;20055;-68
2022/08/29 05:13:48;;;;;;;16.63;10.90;;;;;;;33.35;58.88;98364.69;4891959;29;20442;-68
2022/08/29 05:16:24;;;;;;;17.92;11.20;;;;;;;33.68;58.90;98368.75;4877839;29;20048;-68
2022/08/29 05:19:20;;;;;;;17.10;10.43;;;;;;;33.53;58.03;98364.91;4894369;28;20180;-69
2022/08/29 05:22:15;;;;;;;16.92;9.90;;;;;;;34.24;57.06;98364.28;4880293;29;20056;-68
2022/08/29 05:25:05;;;;;;;17.85;9.60;;;;;;;34.48;56.33;98362.94;4872877;29;20056;-69
2022/08/29 05:27:47;;;;;;;16.35;8.82;;;;;;;34.24;54.65;98367.06;4872385;29;20057;-69
2022/08/29 05:30:36;;;;;;;13.52;8.23;;;;;;;34.16;55.10;98368.16;4859157;29;20057;-69
2022/08/29 05:33:40;;;;;;;12.13;8.27;;;;;;;34.41;57.00;98374.00;4873151;29;20048;-69
2022/08/29 05:36:29;;;;;;;11.90;6.63;;;;;;;34.87;56.46;98366.13;4872828;29;20048;-68
2022/08/29 05:39:18;;;;;;;13.68;7.10;;;;;;;34.95;55.27;98366.19;4855970;29;20374;-69
2022/08/29 05:42:01;;;;;;;11.38;7.40;;;;;;;35.17;53.20;98356.81;4873221;29;20049;-70
2022/08/29 05:44:51;;;;;;;14.38;7.15;;;;;;;35.08;52.59;98357.16;4872818;29;20140;-70
2022/08/29 05:47:33;;;;;;;13.15;7.50;;;;;;;35.51;54.95;98367.81;4872833;29;20048;-69
2022/08/29 05:50:22;;;;;;;12.63;7.57;;;;;;;35.51;54.16;98359.44;4873070;29;20061;-70
2022/08/29 05:53:04;;;;;;;11.02;7.20;;;;;;;36.07;54.74;98366.50;4873449;29;20089;-69
2022/08/29 05:55:56;;;;;;;12.60;7.32;;;;;;;36.11;54.01;98362.94;4873138;29;20140;-69
2022/08/29 05:58:45;;;;;;;14.63;7.55;;;;;;;36.29;52.37;98366.63;4891207;29;20131;-69
2022/08/29 06:01:33;;;;;;;19.50;7.00;;;;;;;36.61;51.47;98368.66;4890920;29;20065;-67
2022/08/29 06:04:22;;;;;;;14.10;7.07;;;;;;;36.58;51.05;98370.25;4863956;29;20098;-68
2022/08/29 06:07:04;;;;;;;13.55;5.68;;;;;;;36.09;50.52;98362.53;4873659;29;20049;-66
2022/08/29 06:09:53;;;;;;;9.98;5.38;;;;;;;36.57;49.55;98365.84;4872692;29;20065;-68
2022/08/29 06:12:44;;;;;;;12.18;5.18;;;;;;;36.14;49.15;98362.94;4872397;29;20144;-67
2022/08/29 06:15:28;;;;;;;11.65;5.22;;;;;;;36.63;47.61;98358.69;4871488;29;20049;-67
2022/08/29 06:18:17;;;;;;;10.65;5.43;;;;;;;36.80;48.44;98362.72;4871482;29;20053;-67
2022/08/29 06:21:23;;;;;;;9.93;5.30;;;;;;;36.71;47.35;98359.53;4895057;28;20524;-67
2022/08/29 06:24:19;;;;;;;13.93;5.43;;;;;;;36.89;49.37;98355.94;4891225;28;20044;-67
2022/08/29 06:27:14;;;;;;;13.63;6.13;;;;;;;36.97;50.82;98352.72;4901990;29;20056;-67
2022/08/29 06:29:49;;;;;;;12.05;5.72;;;;;;;37.01;51.89;98355.50;4909772;29;20056;-67
2022/08/29 06:32:47;;;;;;;9.05;5.10;;;;;;;37.09;47.99;98350.72;4895283;29;20508;-67
2022/08/29 06:35:22;;;;;;;8.98;5.55;;;;;;;36.99;49.39;98349.53;4873702;29;20071;-67
2022/08/29 06:38:11;;;;;;;13.32;5.43;;;;;;;36.90;45.85;98355.53;4899251;29;20080;-68
2022/08/29 06:40:54;;;;;;;10.93;5.60;;;;;;;37.36;48.16;98342.72;4900422;29;20047;-66
2022/08/29 06:43:44;;;;;;;13.55;6.13;;;;;;;37.11;48.80;98342.72;4892891;29;20052;-64
2022/08/29 06:46:39;;;;;;;11.68;6.32;;;;;;;37.27;51.01;98337.53;4873533;29;20040;-66
2022/08/29 06:49:21;;;;;;;12.88;6.65;;;;;;;37.31;48.31;98323.53;4889918;29;20052;-67
2022/08/29 06:52:04;;;;;;;14.90;6.45;;;;;;;36.84;48.22;98335.56;4874183;29;20633;-68
2022/08/29 06:54:52;;;;;;;11.15;6.43;;;;;;;37.12;50.22;98335.94;4891432;29;20120;-64
2022/08/29 06:57:34;;;;;;;19.83;7.13;;;;;;;36.74;48.74;98335.56;4890095;29;20068;-67
2022/08/29 07:00:23;;;;;;;12.45;7.30;;;;;;;36.33;48.37;98319.13;4889262;29;20491;-66
2022/08/29 07:03:05;;;;;;;17.05;8.25;;;;;;;36.89;49.15;98323.16;4886932;29;20448;-65
2022/08/29 07:05:59;;;;;;;14.57;9.77;;;;;;;37.16;49.41;98311.56;4872920;29;20155;-66
2022/08/29 07:08:49;;;;;;;16.08;8.93;;;;;;;36.79;46.84;98304.41;4873149;29;20612;-65
2022/08/29 07:11:38;;;;;;;15.55;8.98;;;;;;;36.89;48.53;98298.00;4889471;29;20124;-66
2022/08/29 07:14:21;;;;;;;17.25;9.55;;;;;;;37.32;49.21;98291.53;4888401;29;20124;-66
2022/08/29 07:17:10;;;;;;;15.75;9.63;;;;;;;37.20;45.95;98296.38;4889620;29;20072;-66
2022/08/29 07:20:06;;;;;;;18.73;6.50;;;;;;;36.62;47.09;98300.38;4891233;29;20134;-66
2022/08/29 07:23:02;;;;;;;14.05;5.45;;;;;;;36.89;46.49;98294.41;4894525;28;20144;-66
2022/08/29 07:25:52;;;;;;;16.92;6.40;;;;;;;37.05;45.99;98291.97;4892752;29;20053;-66
2022/08/29 07:28:41;;;;;;;16.55;7.20;;;;;;;36.86;47.43;98300.78;4894054;29;20045;-66
2022/08/29 07:31:27;;;;;;;12.10;7.18;;;;;;;36.69;48.01;98300.41;4893981;29;20516;-67
2022/08/29 07:34:16;;;;;;;19.40;9.00;;;;;;;37.07;46.82;98289.59;4875199;29;20049;-66
2022/08/29 07:37:12;;;;;;;15.70;8.40;;;;;;;36.76;45.28;98300.38;4875505;29;20064;-66
2022/08/29 07:39:47;;;;;;;16.67;8.70;;;;;;;37.07;47.00;98281.19;4890172;29;20048;-67
2022/08/29 07:42:43;;;;;;;19.63;8.23;;;;;;;37.08;47.62;98273.59;4893900;29;20044;-67
2022/08/29 07:45:19;;;;;;;18.83;8.85;;;;;;;37.08;50.23;98276.41;4893121;29;20052;-66
2022/08/29 07:48:14;;;;;;;;;;;;;;;37.46;46.80;98274.72;4893538;29;20045;-66
2022/08/29 07:50:55;;;;;;;;;;;;;;;37.43;47.54;98272.72;4894634;29;20531;-66
2022/08/29 07:53:57;;;;;;;14.77;6.78;;;;;;;36.92;46.33;98274.00;4901471;29;19927;-64
2022/08/29 07:56:40;;;;;;;13.73;6.07;;;;;;;37.00;46.98;98264.44;4896643;29;20055;-65
2022/08/29 07:59:36;;;;;;;18.95;5.88;;;;;;;37.01;46.97;98261.22;4903710;29;20075;-65
2022/08/29 08:02:11;;;;;;;16.98;5.88;;;;;;;36.63;47.77;98260.03;4899902;29;20049;-65
2022/08/29 08:05:06;;;;;;;17.45;6.18;;;;;;;36.90;47.97;98259.63;4904231;29;20048;-65
2022/08/29 08:07:42;;;;;;;13.13;5.10;;;;;;;36.82;47.02;98242.88;4912022;29;20451;-65
2022/08/29 08:10:38;;;;;;;11.38;5.80;;;;;;;36.57;48.05;98242.06;4911771;29;20047;-65
2022/08/29 08:13:20;;;;;;;18.15;6.28;;;;;;;36.96;48.77;98233.66;4910308;29;20539;-65
2022/08/29 08:16:12;;;;;;;15.65;5.45;;;;;;;36.83;48.51;98233.28;4892646;29;20049;-65
2022/08/29 08:18:54;;;;;;;17.38;5.43;;;;;;;36.96;48.73;98230.88;4900417;29;20810;-65
2022/08/29 08:21:43;;;;;;;13.93;5.40;;;;;;;36.97;49.96;98223.25;4899164;29;20591;-66
2022/08/29 08:24:38;;;;;;;13.25;4.70;;;;;;;36.51;49.04;98226.91;4895723;28;20055;-67
2022/08/29 08:27:27;;;;;;;12.60;4.57;;;;;;;36.46;49.39;98214.13;4898808;29;20058;-66
2022/08/29 08:30:24;;;;;;;9.23;3.92;;;;;;;36.68;50.36;98208.53;4898906;29;20052;-67
2022/08/29 08:33:06;;;;;;;16.50;4.30;;;;;;;36.70;49.78;98214.53;4898090;29;20333;-67
2022/08/29 08:35:56;;;;;;;10.77;4.07;;;;;;;36.01;49.36;98208.88;4901440;29;20052;-67
2022/08/29 08:38:38;;;;;;;12.98;4.13;;;;;;;36.22;48.76;98196.94;4892151;29;20759;-65
2022/08/29 08:41:39;;;;;;;12.07;4.20;;;;;;;35.94;49.48;98211.66;4908947;29;20124;-66
2022/08/29 08:44:21;;;;;;;12.63;4.00;;;;;;;36.72;48.77;98196.16;4901834;29;20051;-66
2022/08/29 08:47:18;;;;;;;14.02;4.50;;;;;;;36.04;49.57;98188.53;4890563;29;20052;-66
2022/08/29 08:50:12;;;;;;;14.23;3.70;;;;;;;36.19;49.42;98188.56;4891342;29;20062;-65
2022/08/29 08:53:11;;;;;;;14.05;4.18;;;;;;;36.06;49.08;98182.56;4891352;29;20132;-66
2022/08/29 08:56:23;;;;;;;9.73;3.88;;;;;;;36.06;50.33;98182.56;4890909;29;20057;-66
2022/08/29 08:59:15;;;;;;;9.57;3.88;;;;;;;36.12;49.30;98175.38;4881463;29;20074;-66
2022/08/29 09:02:33;;;;;;;11.43;4.30;;;;;;;35.54;48.85;98171.69;4895487;29;20663;-66
2022/08/29 09:05:32;;;;;;;8.10;3.63;;;;;;;35.86;50.26;98159.78;4898261;29;20075;-66
2022/08/29 09:08:43;;;;;;;12.68;3.83;;;;;;;36.24;50.27;98144.25;4896853;29;20052;-66
2022/08/29 09:11:47;;;;;;;25.08;3.90;;;;;;;35.59;50.07;98146.16;4900015;29;20147;-66
2022/08/29 09:14:47;;;;;;;14.73;4.45;;;;;;;35.90;51.07;98134.66;4901190;29;20072;-65
2022/08/29 09:17:56;;;;;;;9.52;3.60;;;;;;;35.46;52.66;98133.78;4900190;29;20132;-65
2022/08/29 09:20:39;;;;;;;12.07;4.80;;;;;;;35.79;51.95;98123.47;4901876;29;20119;-66
2022/08/29 09:23:43;;;;;;;15.63;3.97;;;;;;;35.55;52.03;98123.03;4912028;28;20090;-66
2022/08/29 09:26:33;;;;;;;17.60;4.43;;;;;;;35.52;52.71;98126.59;4902682;29;20059;-67
2022/08/29 09:29:22;;;;;;;14.43;4.32;;;;;;;35.17;52.01;98130.91;4891465;29;20120;-67
2022/08/29 09:32:10;;;;;;;14.05;4.10;;;;;;;34.87;52.72;98123.59;4881207;29;20053;-65
2022/08/29 09:35:02;;;;;;;16.25;4.55;;;;;;;35.19;52.89;98122.13;4897837;29;20062;-66
2022/08/29 09:38:19;;;;;;;13.30;5.35;;;;;;;34.86;53.24;98116.41;4904903;29;20280;-66
2022/08/29 09:41:10;;;;;;;12.68;4.55;;;;;;;35.21;53.03;98114.19;4907574;29;20128;-67
2022/08/29 09:43:59;;;;;;;13.05;4.90;;;;;;;35.03;53.43;98114.09;4891413;29;20052;-66
2022/08/29 09:46:41;;;;;;;11.05;4.35;;;;;;;35.03;54.39;98092.56;4908369;29;20059;-66
2022/08/29 09:49:31;;;;;;;13.57;4.93;;;;;;;34.40;55.06;98079.91;4905645;29;20048;-66
2022/08/29 09:52:29;;;;;;;12.32;4.28;;;;;;;34.71;54.00;98103.59;4897334;29;20446;-66
2022/08/29 09:55:23;;;;;;;17.50;5.28;;;;;;;34.72;54.70;98116.34;4897529;29;20048;-66
2022/08/29 09:58:12;;;;;;;16.15;4.95;;;;;;;34.81;58.37;98141.84;4896353;29;20052;-66
2022/08/29 10:01:08;;;;;;;23.60;7.15;;;;;;;33.79;65.58;98171.28;4900425;29;20072;-65
2022/08/29 10:04:09;;;;;;;19.65;9.68;;;;;;;31.59;74.10;98150.56;4880975;29;20057;-66
2022/08/29 10:06:59;;;;;;;9.38;7.57;;;;;;;29.42;74.59;98193.66;4889409;29;20077;-66
2022/08/29 10:10:15;;;;;;;9.30;4.82;;;;;;;29.20;74.30;98219.88;4897284;29;20048;-67
2022/08/29 10:13:32;;;;;;;14.32;6.35;;;;;;;28.77;76.13;98262.72;4885495;29;20049;-65
2022/08/29 10:16:40;;;;;;;12.82;5.70;;;;;;;28.03;78.73;98275.59;4897071;29;20048;-66
2022/08/29 10:19:29;;;;;;;11.43;5.22;;;;;;;27.85;80.86;98277.72;4895303;29;20051;-65
2022/08/29 10:22:20;;;;;;;12.82;5.60;;;;;;;27.81;81.27;98260.22;4895806;29;20048;-66
2022/08/29 10:25:26;;;;;;;13.23;5.18;;;;;;;27.77;81.74;98224.25;4904960;28;20083;-67
2022/08/29 10:28:46;;;;;;;16.08;6.20;;;;;;;27.81;81.63;98221.63;4569792;28;9158032;-66
2022/08/29 10:32:05;;;;;;;8.82;3.92;;;;;;;27.41;80.04;98228.47;4872604;29;20049;-66
2022/08/29 10:35:02;;;;;;;12.32;5.40;;;;;;;27.59;82.00;98242.09;4872362;29;20049;-66
2022/08/29 10:37:50;;;;;;;10.70;4.72;;;;;;;27.15;82.62;98229.47;4872171;29;20049;-67
2022/08/29 10:40:47;;;;;;;12.13;5.60;;;;;;;27.19;83.18;98215.00;4870335;29;20064;-67
2022/08/29 10:43:54;;;;;;;10.15;3.92;;;;;;;27.10;82.81;98213.13;4873838;29;20731;-67
2022/08/29 10:47:02;;;;;;;9.88;4.90;;;;;;;27.76;80.65;98206.09;4872982;29;20409;-67
2022/08/29 10:50:03;;;;;;;9.07;4.05;;;;;;;27.86;80.17;98208.44;4870623;29;20057;-69
2022/08/29 10:53:19;;;;;;;7.47;4.28;;;;;;;28.38;80.06;98211.75;4877730;29;20056;-67
2022/08/29 10:56:05;;;;;;;8.65;5.03;;;;;;;28.42;80.03;98202.44;4881311;29;20052;-66
2022/08/29 10:59:18;;;;;;;8.57;5.00;;;;;;;28.58;78.73;98232.94;4867332;29;20089;-67
2022/08/29 11:02:02;;;;;;;8.73;5.60;;;;;;;28.26;80.54;98264.97;4877116;29;20059;-66
2022/08/29 11:05:03;;;;;;;10.60;5.75;;;;;;;28.67;79.16;98257.69;4879853;29;20365;-67
2022/08/29 11:07:49;;;;;;;12.10;5.55;;;;;;;28.81;78.59;98236.03;4872471;29;20055;-66
2022/08/29 11:10:49;;;;;;;7.10;5.07;;;;;;;28.80;79.42;98228.91;4875651;29;20077;-66
2022/08/29 11:13:37;;;;;;;11.48;5.47;;;;;;;28.96;77.84;98229.00;4877360;29;20055;-67
2022/08/29 11:16:37;;;;;;;16.05;5.93;;;;;;;28.73;79.33;98228.69;4879323;29;20695;-66
2022/08/29 11:19:30;;;;;;;8.00;5.80;;;;;;;28.92;76.29;98203.22;4875418;29;20049;-67
2022/08/29 11:22:24;;;;;;;6.65;4.80;;;;;;;28.70;75.71;98183.25;4879665;29;20065;-67
2022/08/29 11:25:22;;;;;;;9.15;5.03;;;;;;;28.51;75.70;98171.97;4882834;29;20064;-67
2022/08/29 11:28:26;;;;;;;11.45;6.60;;;;;;;28.28;77.67;98190.94;4898370;28;20121;-67
2022/08/29 11:31:43;;;;;;;6.50;4.38;;;;;;;28.42;77.08;98191.41;4913062;28;20727;-67
2022/08/29 11:35:05;;;;;;;6.22;4.35;;;;;;;28.37;77.46;98177.03;4889300;29;20056;-67
2022/08/29 11:38:21;;;;;;;7.00;4.43;;;;;;;28.48;76.27;98173.44;4889283;29;20140;-68
2022/08/29 11:41:27;;;;;;;7.20;5.20;;;;;;;28.29;77.74;98176.78;4874701;29;20551;-67
2022/08/29 11:44:32;;;;;;;7.07;4.90;;;;;;;28.39;77.68;98185.75;4872429;29;20156;-67
2022/08/29 11:47:37;;;;;;;6.80;5.03;;;;;;;28.39;77.36;98183.78;4889380;29;20063;-67
2022/08/29 11:50:34;;;;;;;7.15;5.85;;;;;;;28.22;78.05;98187.59;4889545;29;20155;-69
2022/08/29 11:53:33;;;;;;;9.63;7.00;;;;;;;28.13;77.29;98175.88;4877117;29;20068;-68
2022/08/29 11:56:19;;;;;;;10.55;7.70;;;;;;;28.45;78.54;98187.97;4898040;29;20409;-67
2022/08/29 11:59:08;;;;;;;8.55;7.75;;;;;;;28.47;78.29;98198.63;4898092;29;20055;-68
2022/08/29 12:02:04;;;;;;;8.73;7.53;;;;;;;28.55;79.28;98206.03;4889812;29;20052;-69
2022/08/29 12:04:52;;;;;;;13.07;7.50;;;;;;;28.40;79.33;98181.88;4891804;29;20045;-67
2022/08/29 12:07:53;;;;;;;9.00;6.55;;;;;;;28.61;78.44;98177.03;4900491;29;20052;-67
2022/08/29 12:10:52;;;;;;;7.60;6.05;;;;;;;28.69;76.31;98170.59;4911459;29;20052;-67
2022/08/29 12:13:55;;;;;;;9.70;5.75;;;;;;;28.64;77.65;98154.28;4896711;29;20060;-68
2022/08/29 12:16:47;;;;;;;9.02;6.70;;;;;;;28.92;77.09;98136.13;4892961;29;20143;-68
2022/08/29 12:20:06;;;;;;;8.75;6.88;;;;;;;29.23;77.14;98122.44;4892766;29;20053;-68
2022/08/29 12:23:17;;;;;;;11.38;7.70;;;;;;;29.23;77.78;98130.75;4892428;29;20160;-67
2022/08/29 12:26:50;;;;;;;9.43;7.75;;;;;;;29.11;77.97;98122.47;4895972;29;20049;-67
2022/08/29 12:29:41;;;;;;;12.45;8.38;;;;;;;28.95;78.44;98114.16;4897290;29;20048;-67
2022/08/29 12:32:49;;;;;;;11.93;8.52;;;;;;;29.10;78.45;98115.34;4889049;29;20055;-67
2022/08/29 12:35:50;;;;;;;11.32;9.40;;;;;;;29.13;79.27;98111.13;4883963;28;20517;-66
2022/08/29 12:39:00;;;;;;;11.45;9.73;;;;;;;28.88;78.82;98119.47;4882311;29;20056;-67
2022/08/29 12:42:02;;;;;;;10.55;9.30;;;;;;;29.01;79.54;98112.75;4880791;29;20517;-66
2022/08/29 12:45:11;;;;;;;12.85;9.77;;;;;;;29.03;79.96;98109.63;4879161;29;20596;-67
2022/08/29 12:48:00;;;;;;;10.77;8.55;;;;;;;29.16;79.50;98089.13;4882285;29;20053;-69
2022/08/29 12:50:50;;;;;;;10.45;8.20;;;;;;;28.99;78.64;98095.72;4884583;29;20061;-67
2022/08/29 12:53:37;;;;;;;11.00;8.65;;;;;;;29.22;79.42;98095.19;4863038;29;20059;-66
2022/08/29 12:56:33;;;;;;;10.45;8.73;;;;;;;29.26;79.92;98102.41;4877588;29;20172;-67
2022/08/29 12:59:17;;;;;;;15.27;10.25;;;;;;;29.24;80.24;98120.50;4879916;29;20052;-66
2022/08/29 13:02:31;;;;;;;11.35;9.35;;;;;;;29.35;79.10;98124.38;4879484;29;20160;-66
2022/08/29 13:05:30;;;;;;;15.98;9.80;;;;;;;29.22;80.27;98128.34;4880349;29;20124;-66
2022/08/29 13:08:36;;;;;;;14.75;10.27;;;;;;;29.05;79.76;98127.44;4879026;29;20052;-67
2022/08/29 13:11:12;;;;;;;10.65;9.25;;;;;;;29.16;80.98;98116.75;4880871;29;20162;-67
2022/08/29 13:14:14;;;;;;;11.48;9.10;;;;;;;29.07;79.77;98122.38;4881630;29;20045;-67
2022/08/29 13:16:51;;;;;;;12.20;9.32;;;;;;;29.25;80.04;98122.09;4882485;29;20052;-66
2022/08/29 13:19:40;;;;;;;13.82;9.73;;;;;;;29.21;79.34;98121.22;4887882;29;20116;-67
2022/08/29 13:22:24;;;;;;;13.20;10.52;;;;;;;29.20;79.76;98122.38;4881732;29;20061;-67
2022/08/29 13:25:22;;;;;;;13.88;10.20;;;;;;;29.19;80.77;98123.53;4874123;29;20145;-66